sensor_id;sensor_type;location;lat;lon;timestamp;temperature;humidity
48988;DHT22;34799;51.440;-2.534;2023-02-12T00:01:13;10.30;99.90
48988;DHT22;34799;51.440;-2.534;2023-02-12T00:03:40;10.30;99.90
48988;DHT22;34799;51.440;-2.534;2023-02-12T00:06:08;10.30;99.90
48988;DHT22;34799;51.440;-2.534;2023-02-12T00:08:38;10.20;99.90
48988;DHT22;34799;51.440;-2.534;2023-02-12T00:11:13;10.20;99.90
48988;DHT22;34799;51.440;-2.534;2023-02-12T00:13:41;10.20;99.90
48988;DHT22;34799;51.440;-2.534;2023-02-12T00:16:11;14.80;99.90
48988;DHT22;34799;51.440;-2.534;2023-02-12T00:18:39;10.20;99.90
48988;DHT22;34799;51.440;-2.534;2023-02-12T00:21:06;10.30;99.90
48988;DHT22;34799;51.440;-2.534;2023-02-12T00:23:37;10.20;99.90
48988;DHT22;34799;51.440;-2.534;2023-02-12T00:26:08;10.30;99.90
48988;DHT22;34799;51.440;-2.534;2023-02-12T00:28:39;10.20;99.90
48988;DHT22;34799;51.440;-2.534;2023-02-12T00:31:12;10.20;99.90
48988;DHT22;34799;51.440;-2.534;2023-02-12T00:33:40;10.20;99.90
48988;DHT22;34799;51.440;-2.534;2023-02-12T00:36:09;10.10;99.90
48988;DHT22;34799;51.440;-2.534;2023-02-12T00:38:39;7.90;99.90
48988;DHT22;34799;51.440;-2.534;2023-02-12T00:41:09;10.10;99.90
48988;DHT22;34799;51.440;-2.534;2023-02-12T00:43:36;12.00;99.90
48988;DHT22;34799;51.440;-2.534;2023-02-12T00:46:03;10.10;99.90
48988;DHT22;34799;51.440;-2.534;2023-02-12T00:48:32;10.20;99.90
48988;DHT22;34799;51.440;-2.534;2023-02-12T00:51:01;10.10;99.90
48988;DHT22;34799;51.440;-2.534;2023-02-12T00:53:28;10.20;99.90
48988;DHT22;34799;51.440;-2.534;2023-02-12T00:55:56;10.20;99.90
48988;DHT22;34799;51.440;-2.534;2023-02-12T00:58:24;10.20;99.90
48988;DHT22;34799;51.440;-2.534;2023-02-12T01:00:51;10.20;99.90
48988;DHT22;34799;51.440;-2.534;2023-02-12T01:03:22;10.20;99.90
48988;DHT22;34799;51.440;-2.534;2023-02-12T01:05:51;10.10;99.90
48988;DHT22;34799;51.440;-2.534;2023-02-12T01:08:20;10.20;99.90
48988;DHT22;34799;51.440;-2.534;2023-02-12T01:10:58;10.10;99.90
48988;DHT22;34799;51.440;-2.534;2023-02-12T01:13:28;10.10;99.90
48988;DHT22;34799;51.440;-2.534;2023-02-12T01:16:02;10.10;99.90
48988;DHT22;34799;51.440;-2.534;2023-02-12T01:18:29;10.20;99.90
48988;DHT22;34799;51.440;-2.534;2023-02-12T01:20:58;10.10;99.90
48988;DHT22;34799;51.440;-2.534;2023-02-12T01:23:26;10.10;99.90
48988;DHT22;34799;51.440;-2.534;2023-02-12T01:25:53;10.10;99.90
48988;DHT22;34799;51.440;-2.534;2023-02-12T01:28:20;10.10;99.90
48988;DHT22;34799;51.440;-2.534;2023-02-12T01:30:48;12.20;99.90
48988;DHT22;34799;51.440;-2.534;2023-02-12T01:33:15;10.00;99.90
48988;DHT22;34799;51.440;-2.534;2023-02-12T01:35:42;10.00;99.90
48988;DHT22;34799;51.440;-2.534;2023-02-12T01:38:10;10.10;99.90
48988;DHT22;34799;51.440;-2.534;2023-02-12T01:40:37;10.00;99.90
48988;DHT22;34799;51.440;-2.534;2023-02-12T01:43:08;10.00;99.90
48988;DHT22;34799;51.440;-2.534;2023-02-12T01:48:09;10.00;99.90
48988;DHT22;34799;51.440;-2.534;2023-02-12T01:50:37;10.00;99.90
48988;DHT22;34799;51.440;-2.534;2023-02-12T01:53:04;10.00;99.90
48988;DHT22;34799;51.440;-2.534;2023-02-12T01:55:31;9.90;99.90
48988;DHT22;34799;51.440;-2.534;2023-02-12T01:57:59;9.90;99.90
48988;DHT22;34799;51.440;-2.534;2023-02-12T02:00:26;9.90;99.90
48988;DHT22;34799;51.440;-2.534;2023-02-12T02:02:58;9.80;99.90
48988;DHT22;34799;51.440;-2.534;2023-02-12T02:05:44;9.90;99.90
48988;DHT22;34799;51.440;-2.534;2023-02-12T02:08:13;9.90;99.90
48988;DHT22;34799;51.440;-2.534;2023-02-12T02:10:41;9.80;99.90
48988;DHT22;34799;51.440;-2.534;2023-02-12T02:13:08;9.90;99.90
48988;DHT22;34799;51.440;-2.534;2023-02-12T02:15:56;9.70;99.90
48988;DHT22;34799;51.440;-2.534;2023-02-12T02:24:34;9.60;99.90
48988;DHT22;34799;51.440;-2.534;2023-02-12T02:27:10;9.50;99.90
48988;DHT22;34799;51.440;-2.534;2023-02-12T02:32:26;9.40;99.90
48988;DHT22;34799;51.440;-2.534;2023-02-12T02:37:40;9.40;99.90
48988;DHT22;34799;51.440;-2.534;2023-02-12T02:40:18;9.40;99.90
48988;DHT22;34799;51.440;-2.534;2023-02-12T02:43:04;9.30;99.90
48988;DHT22;34799;51.440;-2.534;2023-02-12T02:45:39;9.40;99.90
48988;DHT22;34799;51.440;-2.534;2023-02-12T02:48:13;9.40;99.90
48988;DHT22;34799;51.440;-2.534;2023-02-12T02:50:47;9.40;99.90
48988;DHT22;34799;51.440;-2.534;2023-02-12T02:53:27;9.30;99.90
48988;DHT22;34799;51.440;-2.534;2023-02-12T02:55:59;9.40;99.90
48988;DHT22;34799;51.440;-2.534;2023-02-12T02:58:54;9.30;99.90
48988;DHT22;34799;51.440;-2.534;2023-02-12T03:04:42;9.30;99.90
48988;DHT22;34799;51.440;-2.534;2023-02-12T03:07:16;9.30;99.90
48988;DHT22;34799;51.440;-2.534;2023-02-12T03:10:05;9.30;99.90
48988;DHT22;34799;51.440;-2.534;2023-02-12T03:12:46;9.40;99.90
48988;DHT22;34799;51.440;-2.534;2023-02-12T03:15:20;9.40;99.90
48988;DHT22;34799;51.440;-2.534;2023-02-12T03:17:51;9.30;99.90
48988;DHT22;34799;51.440;-2.534;2023-02-12T03:23:54;9.40;99.90
48988;DHT22;34799;51.440;-2.534;2023-02-12T03:26:36;9.40;99.90
48988;DHT22;34799;51.440;-2.534;2023-02-12T03:29:04;9.40;99.90
48988;DHT22;34799;51.440;-2.534;2023-02-12T03:36:55;9.40;99.90
48988;DHT22;34799;51.440;-2.534;2023-02-12T03:45:35;9.50;99.90
48988;DHT22;34799;51.440;-2.534;2023-02-12T03:53:36;9.60;99.90
48988;DHT22;34799;51.440;-2.534;2023-02-12T03:56:08;9.60;99.90
48988;DHT22;34799;51.440;-2.534;2023-02-12T03:58:38;9.50;99.90
48988;DHT22;34799;51.440;-2.534;2023-02-12T04:01:07;9.90;99.90
48988;DHT22;34799;51.440;-2.534;2023-02-12T04:03:35;9.50;99.90
48988;DHT22;34799;51.440;-2.534;2023-02-12T04:06:03;9.50;99.90
48988;DHT22;34799;51.440;-2.534;2023-02-12T04:08:31;9.50;99.90
48988;DHT22;34799;51.440;-2.534;2023-02-12T04:11:16;9.50;99.90
48988;DHT22;34799;51.440;-2.534;2023-02-12T04:16:48;9.40;99.90
48988;DHT22;34799;51.440;-2.534;2023-02-12T04:19:29;9.40;99.90
48988;DHT22;34799;51.440;-2.534;2023-02-12T04:22:49;9.20;99.90
48988;DHT22;34799;51.440;-2.534;2023-02-12T04:25:26;9.30;99.90
48988;DHT22;34799;51.440;-2.534;2023-02-12T04:33:46;9.40;99.90
48988;DHT22;34799;51.440;-2.534;2023-02-12T04:36:24;9.40;99.90
48988;DHT22;34799;51.440;-2.534;2023-02-12T04:39:05;9.40;99.90
48988;DHT22;34799;51.440;-2.534;2023-02-12T04:41:40;9.40;99.90
48988;DHT22;34799;51.440;-2.534;2023-02-12T04:44:25;9.40;99.90
48988;DHT22;34799;51.440;-2.534;2023-02-12T04:46:52;9.40;99.90
48988;DHT22;34799;51.440;-2.534;2023-02-12T04:49:22;9.40;99.90
48988;DHT22;34799;51.440;-2.534;2023-02-12T04:51:50;9.40;99.90
48988;DHT22;34799;51.440;-2.534;2023-02-12T04:54:18;9.40;99.90
48988;DHT22;34799;51.440;-2.534;2023-02-12T04:56:45;9.50;99.90
48988;DHT22;34799;51.440;-2.534;2023-02-12T04:59:14;9.50;99.90
48988;DHT22;34799;51.440;-2.534;2023-02-12T05:01:42;9.40;99.90
48988;DHT22;34799;51.440;-2.534;2023-02-12T05:04:12;9.50;99.90
48988;DHT22;34799;51.440;-2.534;2023-02-12T05:06:41;9.50;99.90
48988;DHT22;34799;51.440;-2.534;2023-02-12T05:09:14;9.50;99.90
48988;DHT22;34799;51.440;-2.534;2023-02-12T05:11:42;9.80;99.90
48988;DHT22;34799;51.440;-2.534;2023-02-12T05:14:09;9.50;99.90
48988;DHT22;34799;51.440;-2.534;2023-02-12T05:16:36;9.50;99.90
48988;DHT22;34799;51.440;-2.534;2023-02-12T05:19:03;9.50;99.90
48988;DHT22;34799;51.440;-2.534;2023-02-12T05:21:30;9.50;99.90
48988;DHT22;34799;51.440;-2.534;2023-02-12T05:24:00;9.40;99.90
48988;DHT22;34799;51.440;-2.534;2023-02-12T05:26:28;9.50;99.90
48988;DHT22;34799;51.440;-2.534;2023-02-12T05:28:55;9.40;99.90
48988;DHT22;34799;51.440;-2.534;2023-02-12T05:31:23;9.40;99.90
48988;DHT22;34799;51.440;-2.534;2023-02-12T05:33:52;9.40;99.90
48988;DHT22;34799;51.440;-2.534;2023-02-12T05:36:22;9.30;99.90
48988;DHT22;34799;51.440;-2.534;2023-02-12T05:38:50;7.20;99.90
48988;DHT22;34799;51.440;-2.534;2023-02-12T05:41:21;9.30;99.90
48988;DHT22;34799;51.440;-2.534;2023-02-12T05:43:49;9.40;99.90
48988;DHT22;34799;51.440;-2.534;2023-02-12T05:46:17;9.40;99.90
48988;DHT22;34799;51.440;-2.534;2023-02-12T05:48:46;9.30;99.90
48988;DHT22;34799;51.440;-2.534;2023-02-12T05:51:16;9.30;99.90
48988;DHT22;34799;51.440;-2.534;2023-02-12T05:53:43;9.30;99.90
48988;DHT22;34799;51.440;-2.534;2023-02-12T05:56:18;9.50;99.90
48988;DHT22;34799;51.440;-2.534;2023-02-12T05:58:52;9.30;99.90
48988;DHT22;34799;51.440;-2.534;2023-02-12T06:01:28;9.40;99.90
48988;DHT22;34799;51.440;-2.534;2023-02-12T06:03:56;9.40;99.90
48988;DHT22;34799;51.440;-2.534;2023-02-12T06:06:25;9.50;99.90
48988;DHT22;34799;51.440;-2.534;2023-02-12T06:08:53;9.40;99.90
48988;DHT22;34799;51.440;-2.534;2023-02-12T06:11:20;9.30;99.90
48988;DHT22;34799;51.440;-2.534;2023-02-12T06:13:48;9.50;99.90
48988;DHT22;34799;51.440;-2.534;2023-02-12T06:16:21;9.30;99.90
48988;DHT22;34799;51.440;-2.534;2023-02-12T06:18:50;9.40;99.90
48988;DHT22;34799;51.440;-2.534;2023-02-12T06:21:19;9.30;99.90
48988;DHT22;34799;51.440;-2.534;2023-02-12T06:23:47;9.30;99.90
48988;DHT22;34799;51.440;-2.534;2023-02-12T06:26:15;9.20;99.90
48988;DHT22;34799;51.440;-2.534;2023-02-12T06:28:43;9.30;99.90
48988;DHT22;34799;51.440;-2.534;2023-02-12T06:31:25;9.30;99.90
48988;DHT22;34799;51.440;-2.534;2023-02-12T06:33:54;9.30;99.90
48988;DHT22;34799;51.440;-2.534;2023-02-12T06:36:22;9.30;99.90
48988;DHT22;34799;51.440;-2.534;2023-02-12T06:38:50;9.30;99.90
48988;DHT22;34799;51.440;-2.534;2023-02-12T06:41:17;9.40;99.90
48988;DHT22;34799;51.440;-2.534;2023-02-12T06:43:46;9.40;99.90
48988;DHT22;34799;51.440;-2.534;2023-02-12T06:46:13;9.30;99.90
48988;DHT22;34799;51.440;-2.534;2023-02-12T06:48:41;9.30;99.90
48988;DHT22;34799;51.440;-2.534;2023-02-12T06:51:16;9.30;99.90
48988;DHT22;34799;51.440;-2.534;2023-02-12T06:53:43;9.30;99.90
48988;DHT22;34799;51.440;-2.534;2023-02-12T06:56:12;9.40;99.90
48988;DHT22;34799;51.440;-2.534;2023-02-12T06:58:43;9.30;99.90
48988;DHT22;34799;51.440;-2.534;2023-02-12T07:01:22;9.30;99.90
48988;DHT22;34799;51.440;-2.534;2023-02-12T07:03:53;9.30;99.90
48988;DHT22;34799;51.440;-2.534;2023-02-12T07:06:21;9.40;99.90
48988;DHT22;34799;51.440;-2.534;2023-02-12T07:08:50;9.30;99.90
48988;DHT22;34799;51.440;-2.534;2023-02-12T07:11:18;9.40;99.90
48988;DHT22;34799;51.440;-2.534;2023-02-12T07:13:48;9.30;99.90
48988;DHT22;34799;51.440;-2.534;2023-02-12T07:16:16;9.30;99.90
48988;DHT22;34799;51.440;-2.534;2023-02-12T07:18:44;9.30;99.90
48988;DHT22;34799;51.440;-2.534;2023-02-12T07:21:12;9.30;99.90
48988;DHT22;34799;51.440;-2.534;2023-02-12T07:23:40;9.30;99.90
48988;DHT22;34799;51.440;-2.534;2023-02-12T07:26:11;9.30;99.90
48988;DHT22;34799;51.440;-2.534;2023-02-12T07:28:39;9.20;99.90
48988;DHT22;34799;51.440;-2.534;2023-02-12T07:31:08;9.20;99.90
48988;DHT22;34799;51.440;-2.534;2023-02-12T07:33:37;9.10;99.90
48988;DHT22;34799;51.440;-2.534;2023-02-12T07:36:07;9.10;99.90
48988;DHT22;34799;51.440;-2.534;2023-02-12T07:38:35;9.10;99.90
48988;DHT22;34799;51.440;-2.534;2023-02-12T07:41:23;9.10;99.90
48988;DHT22;34799;51.440;-2.534;2023-02-12T07:43:58;9.10;99.90
48988;DHT22;34799;51.440;-2.534;2023-02-12T07:46:29;9.20;99.90
48988;DHT22;34799;51.440;-2.534;2023-02-12T07:49:00;9.20;99.90
48988;DHT22;34799;51.440;-2.534;2023-02-12T07:51:29;9.20;99.90
48988;DHT22;34799;51.440;-2.534;2023-02-12T07:53:58;9.20;99.90
48988;DHT22;34799;51.440;-2.534;2023-02-12T07:56:28;9.20;99.90
48988;DHT22;34799;51.440;-2.534;2023-02-12T07:59:01;9.30;99.90
48988;DHT22;34799;51.440;-2.534;2023-02-12T08:01:34;9.30;99.90
48988;DHT22;34799;51.440;-2.534;2023-02-12T08:04:04;9.20;99.90
48988;DHT22;34799;51.440;-2.534;2023-02-12T08:06:35;9.30;99.90
48988;DHT22;34799;51.440;-2.534;2023-02-12T08:09:05;9.40;99.90
48988;DHT22;34799;51.440;-2.534;2023-02-12T08:11:36;9.30;99.90
48988;DHT22;34799;51.440;-2.534;2023-02-12T08:14:03;9.30;99.90
48988;DHT22;34799;51.440;-2.534;2023-02-12T08:16:36;9.30;99.90
48988;DHT22;34799;51.440;-2.534;2023-02-12T08:19:03;9.30;99.90
48988;DHT22;34799;51.440;-2.534;2023-02-12T08:21:43;9.30;99.90
48988;DHT22;34799;51.440;-2.534;2023-02-12T08:24:11;9.30;99.90
48988;DHT22;34799;51.440;-2.534;2023-02-12T08:26:39;9.30;99.90
48988;DHT22;34799;51.440;-2.534;2023-02-12T08:29:09;9.30;99.90
48988;DHT22;34799;51.440;-2.534;2023-02-12T08:31:41;9.30;99.90
48988;DHT22;34799;51.440;-2.534;2023-02-12T08:34:17;9.30;99.90
48988;DHT22;34799;51.440;-2.534;2023-02-12T08:36:46;9.30;99.90
48988;DHT22;34799;51.440;-2.534;2023-02-12T08:39:16;9.40;99.90
48988;DHT22;34799;51.440;-2.534;2023-02-12T08:41:44;9.40;99.90
48988;DHT22;34799;51.440;-2.534;2023-02-12T08:44:12;9.30;99.90
48988;DHT22;34799;51.440;-2.534;2023-02-12T08:46:44;9.40;99.90
48988;DHT22;34799;51.440;-2.534;2023-02-12T08:49:21;9.40;99.90
48988;DHT22;34799;51.440;-2.534;2023-02-12T08:51:51;9.40;99.90
48988;DHT22;34799;51.440;-2.534;2023-02-12T08:54:22;9.50;99.90
48988;DHT22;34799;51.440;-2.534;2023-02-12T08:57:01;9.50;99.90
48988;DHT22;34799;51.440;-2.534;2023-02-12T08:59:29;9.50;99.90
48988;DHT22;34799;51.440;-2.534;2023-02-12T09:01:56;9.50;99.90
48988;DHT22;34799;51.440;-2.534;2023-02-12T09:04:25;9.60;99.90
48988;DHT22;34799;51.440;-2.534;2023-02-12T09:06:54;9.50;99.90
48988;DHT22;34799;51.440;-2.534;2023-02-12T09:09:21;9.50;99.90
48988;DHT22;34799;51.440;-2.534;2023-02-12T09:11:49;9.60;99.90
48988;DHT22;34799;51.440;-2.534;2023-02-12T09:14:17;9.60;99.90
48988;DHT22;34799;51.440;-2.534;2023-02-12T09:16:49;9.60;99.90
48988;DHT22;34799;51.440;-2.534;2023-02-12T09:19:19;9.50;99.90
48988;DHT22;34799;51.440;-2.534;2023-02-12T09:21:53;9.50;99.90
48988;DHT22;34799;51.440;-2.534;2023-02-12T09:24:23;9.50;99.90
48988;DHT22;34799;51.440;-2.534;2023-02-12T09:26:50;9.60;99.90
48988;DHT22;34799;51.440;-2.534;2023-02-12T09:29:17;9.70;99.90
48988;DHT22;34799;51.440;-2.534;2023-02-12T09:31:44;9.70;99.90
48988;DHT22;34799;51.440;-2.534;2023-02-12T09:34:12;9.70;99.90
48988;DHT22;34799;51.440;-2.534;2023-02-12T09:36:41;9.70;99.90
48988;DHT22;34799;51.440;-2.534;2023-02-12T09:39:08;9.80;99.90
48988;DHT22;34799;51.440;-2.534;2023-02-12T09:55:13;9.90;99.90
48988;DHT22;34799;51.440;-2.534;2023-02-12T09:57:41;9.80;99.90
48988;DHT22;34799;51.440;-2.534;2023-02-12T10:00:14;9.90;99.90
48988;DHT22;34799;51.440;-2.534;2023-02-12T10:02:42;10.00;99.90
48988;DHT22;34799;51.440;-2.534;2023-02-12T10:05:18;10.10;99.90
48988;DHT22;34799;51.440;-2.534;2023-02-12T10:11:21;10.10;99.90
48988;DHT22;34799;51.440;-2.534;2023-02-12T10:30:05;10.10;99.90
48988;DHT22;34799;51.440;-2.534;2023-02-12T10:32:42;10.10;99.90
48988;DHT22;34799;51.440;-2.534;2023-02-12T10:35:15;10.30;99.90
48988;DHT22;34799;51.440;-2.534;2023-02-12T10:38:04;10.20;99.90
48988;DHT22;34799;51.440;-2.534;2023-02-12T10:40:33;10.30;99.90
48988;DHT22;34799;51.440;-2.534;2023-02-12T10:43:04;10.30;99.90
48988;DHT22;34799;51.440;-2.534;2023-02-12T10:45:36;10.30;99.90
48988;DHT22;34799;51.440;-2.534;2023-02-12T10:48:19;10.40;99.90
48988;DHT22;34799;51.440;-2.534;2023-02-12T10:53:44;10.20;99.90
48988;DHT22;34799;51.440;-2.534;2023-02-12T10:56:16;10.20;99.90
48988;DHT22;34799;51.440;-2.534;2023-02-12T10:58:58;10.20;99.90
48988;DHT22;34799;51.440;-2.534;2023-02-12T11:01:36;10.30;99.90
48988;DHT22;34799;51.440;-2.534;2023-02-12T11:04:28;10.30;99.90
48988;DHT22;34799;51.440;-2.534;2023-02-12T11:07:09;10.30;99.90
48988;DHT22;34799;51.440;-2.534;2023-02-12T11:09:39;10.40;99.90
48988;DHT22;34799;51.440;-2.534;2023-02-12T11:12:43;10.30;99.90
48988;DHT22;34799;51.440;-2.534;2023-02-12T11:15:15;10.20;99.90
48988;DHT22;34799;51.440;-2.534;2023-02-12T11:17:45;10.20;99.90
48988;DHT22;34799;51.440;-2.534;2023-02-12T11:20:32;10.30;99.90
48988;DHT22;34799;51.440;-2.534;2023-02-12T11:23:05;10.20;99.90
48988;DHT22;34799;51.440;-2.534;2023-02-12T11:25:35;10.20;99.90
48988;DHT22;34799;51.440;-2.534;2023-02-12T11:28:17;10.30;99.90
48988;DHT22;34799;51.440;-2.534;2023-02-12T11:33:34;10.40;99.90
48988;DHT22;34799;51.440;-2.534;2023-02-12T11:38:36;10.50;99.90
48988;DHT22;34799;51.440;-2.534;2023-02-12T11:41:33;10.60;99.90
48988;DHT22;34799;51.440;-2.534;2023-02-12T11:44:11;10.60;99.90
48988;DHT22;34799;51.440;-2.534;2023-02-12T11:46:39;10.60;99.90
48988;DHT22;34799;51.440;-2.534;2023-02-12T11:49:19;10.60;99.90
48988;DHT22;34799;51.440;-2.534;2023-02-12T11:51:48;10.60;99.90
48988;DHT22;34799;51.440;-2.534;2023-02-12T11:54:23;10.70;99.90
48988;DHT22;34799;51.440;-2.534;2023-02-12T11:56:52;10.70;99.90
48988;DHT22;34799;51.440;-2.534;2023-02-12T11:59:36;10.70;99.90
48988;DHT22;34799;51.440;-2.534;2023-02-12T12:02:29;10.80;99.90
48988;DHT22;34799;51.440;-2.534;2023-02-12T12:05:11;10.70;99.90
48988;DHT22;34799;51.440;-2.534;2023-02-12T12:07:47;10.80;99.90
48988;DHT22;34799;51.440;-2.534;2023-02-12T12:10:21;10.70;99.90
48988;DHT22;34799;51.440;-2.534;2023-02-12T12:12:53;10.70;99.90
48988;DHT22;34799;51.440;-2.534;2023-02-12T12:15:32;10.70;99.90
48988;DHT22;34799;51.440;-2.534;2023-02-12T12:18:53;10.80;99.90
48988;DHT22;34799;51.440;-2.534;2023-02-12T13:01:13;11.30;99.90
48988;DHT22;34799;51.440;-2.534;2023-02-12T13:04:09;11.30;99.90
48988;DHT22;34799;51.440;-2.534;2023-02-12T13:12:32;11.30;99.90
48988;DHT22;34799;51.440;-2.534;2023-02-12T13:21:10;11.20;99.90
48988;DHT22;34799;51.440;-2.534;2023-02-12T13:23:46;11.30;99.90
48988;DHT22;34799;51.440;-2.534;2023-02-12T13:26:26;11.40;99.90
48988;DHT22;34799;51.440;-2.534;2023-02-12T13:29:19;11.40;99.90
48988;DHT22;34799;51.440;-2.534;2023-02-12T13:31:54;11.50;99.90
48988;DHT22;34799;51.440;-2.534;2023-02-12T13:34:23;11.50;99.90
48988;DHT22;34799;51.440;-2.534;2023-02-12T13:36:56;11.50;99.90
48988;DHT22;34799;51.440;-2.534;2023-02-12T13:39:40;11.50;99.90
48988;DHT22;34799;51.440;-2.534;2023-02-12T13:53:36;11.30;99.90
48988;DHT22;34799;51.440;-2.534;2023-02-12T13:56:10;11.30;99.90
48988;DHT22;34799;51.440;-2.534;2023-02-12T13:58:50;11.30;99.90
48988;DHT22;34799;51.440;-2.534;2023-02-12T14:01:40;11.30;99.90
48988;DHT22;34799;51.440;-2.534;2023-02-12T14:04:33;11.40;99.90
48988;DHT22;34799;51.440;-2.534;2023-02-12T14:07:09;11.40;99.90
48988;DHT22;34799;51.440;-2.534;2023-02-12T14:12:25;11.70;99.90
48988;DHT22;34799;51.440;-2.534;2023-02-12T14:20:29;11.50;99.90
48988;DHT22;34799;51.440;-2.534;2023-02-12T14:26:27;11.40;99.90
48988;DHT22;34799;51.440;-2.534;2023-02-12T14:33:46;11.10;99.90
48988;DHT22;34799;51.440;-2.534;2023-02-12T14:44:42;11.30;99.90
48988;DHT22;34799;51.440;-2.534;2023-02-12T14:47:48;11.40;99.90
48988;DHT22;34799;51.440;-2.534;2023-02-12T14:50:17;11.40;99.90
48988;DHT22;34799;51.440;-2.534;2023-02-12T14:52:51;11.60;99.90
48988;DHT22;34799;51.440;-2.534;2023-02-12T14:55:32;11.60;99.90
48988;DHT22;34799;51.440;-2.534;2023-02-12T14:58:04;11.60;99.90
48988;DHT22;34799;51.440;-2.534;2023-02-12T15:00:35;11.60;99.90
48988;DHT22;34799;51.440;-2.534;2023-02-12T15:03:28;11.70;99.90
48988;DHT22;34799;51.440;-2.534;2023-02-12T15:08:54;11.50;99.90
48988;DHT22;34799;51.440;-2.534;2023-02-12T15:11:42;11.50;99.90
48988;DHT22;34799;51.440;-2.534;2023-02-12T15:14:24;11.40;99.90
48988;DHT22;34799;51.440;-2.534;2023-02-12T15:17:14;11.40;99.90
48988;DHT22;34799;51.440;-2.534;2023-02-12T15:22:35;11.30;99.90
48988;DHT22;34799;51.440;-2.534;2023-02-12T15:25:23;11.30;99.90
48988;DHT22;34799;51.440;-2.534;2023-02-12T15:28:05;11.20;99.90
48988;DHT22;34799;51.440;-2.534;2023-02-12T15:30:39;11.00;99.90
48988;DHT22;34799;51.440;-2.534;2023-02-12T15:33:22;10.90;99.90
48988;DHT22;34799;51.440;-2.534;2023-02-12T15:35:51;10.90;99.90
48988;DHT22;34799;51.440;-2.534;2023-02-12T15:38:22;11.00;99.90
48988;DHT22;34799;51.440;-2.534;2023-02-12T15:40:56;11.10;99.90
48988;DHT22;34799;51.440;-2.534;2023-02-12T15:43:27;10.90;99.90
48988;DHT22;34799;51.440;-2.534;2023-02-12T15:45:57;10.90;99.90
48988;DHT22;34799;51.440;-2.534;2023-02-12T15:48:31;10.90;99.90
48988;DHT22;34799;51.440;-2.534;2023-02-12T15:51:07;10.90;99.90
48988;DHT22;34799;51.440;-2.534;2023-02-12T15:53:35;10.80;99.90
48988;DHT22;34799;51.440;-2.534;2023-02-12T15:56:14;10.80;99.90
48988;DHT22;34799;51.440;-2.534;2023-02-12T15:58:51;10.80;99.90
48988;DHT22;34799;51.440;-2.534;2023-02-12T16:01:24;10.80;99.90
48988;DHT22;34799;51.440;-2.534;2023-02-12T16:03:54;10.80;99.90
48988;DHT22;34799;51.440;-2.534;2023-02-12T16:06:24;10.70;99.90
48988;DHT22;34799;51.440;-2.534;2023-02-12T16:09:16;10.70;99.90
48988;DHT22;34799;51.440;-2.534;2023-02-12T16:11:46;10.60;99.90
48988;DHT22;34799;51.440;-2.534;2023-02-12T16:14:24;10.50;99.90
48988;DHT22;34799;51.440;-2.534;2023-02-12T16:16:53;10.50;99.90
48988;DHT22;34799;51.440;-2.534;2023-02-12T16:19:25;10.40;99.90
48988;DHT22;34799;51.440;-2.534;2023-02-12T16:22:13;10.40;99.90
48988;DHT22;34799;51.440;-2.534;2023-02-12T16:24:46;10.40;99.90
48988;DHT22;34799;51.440;-2.534;2023-02-12T16:29:53;10.40;99.90
48988;DHT22;34799;51.440;-2.534;2023-02-12T16:32:35;10.20;99.90
48988;DHT22;34799;51.440;-2.534;2023-02-12T16:37:41;10.00;99.90
48988;DHT22;34799;51.440;-2.534;2023-02-12T16:48:16;9.60;99.90
48988;DHT22;34799;51.440;-2.534;2023-02-12T16:50:52;9.60;99.90
48988;DHT22;34799;51.440;-2.534;2023-02-12T16:55:56;9.60;99.90
48988;DHT22;34799;51.440;-2.534;2023-02-12T16:58:25;9.60;99.90
48988;DHT22;34799;51.440;-2.534;2023-02-12T17:00:54;9.70;99.90
48988;DHT22;34799;51.440;-2.534;2023-02-12T17:03:23;9.70;99.90
48988;DHT22;34799;51.440;-2.534;2023-02-12T17:05:51;9.70;99.90
48988;DHT22;34799;51.440;-2.534;2023-02-12T17:08:21;9.70;99.90
48988;DHT22;34799;51.440;-2.534;2023-02-12T17:10:48;9.70;99.90
48988;DHT22;34799;51.440;-2.534;2023-02-12T17:13:17;9.70;99.90
48988;DHT22;34799;51.440;-2.534;2023-02-12T17:15:54;9.60;99.90
48988;DHT22;34799;51.440;-2.534;2023-02-12T17:18:23;9.60;99.90
48988;DHT22;34799;51.440;-2.534;2023-02-12T17:20:59;9.60;99.90
48988;DHT22;34799;51.440;-2.534;2023-02-12T17:23:28;9.60;99.90
48988;DHT22;34799;51.440;-2.534;2023-02-12T17:25:56;9.60;99.90
48988;DHT22;34799;51.440;-2.534;2023-02-12T17:28:23;9.60;99.90
48988;DHT22;34799;51.440;-2.534;2023-02-12T17:30:52;9.50;99.90
48988;DHT22;34799;51.440;-2.534;2023-02-12T17:33:20;9.60;99.90
48988;DHT22;34799;51.440;-2.534;2023-02-12T17:35:48;9.50;99.90
48988;DHT22;34799;51.440;-2.534;2023-02-12T17:38:15;9.50;99.90
48988;DHT22;34799;51.440;-2.534;2023-02-12T17:40:42;9.60;99.90
48988;DHT22;34799;51.440;-2.534;2023-02-12T17:43:09;9.60;99.90
48988;DHT22;34799;51.440;-2.534;2023-02-12T17:45:40;9.60;99.90
48988;DHT22;34799;51.440;-2.534;2023-02-12T17:48:13;9.50;99.90
48988;DHT22;34799;51.440;-2.534;2023-02-12T17:50:41;9.50;99.90
48988;DHT22;34799;51.440;-2.534;2023-02-12T17:53:09;9.60;99.90
48988;DHT22;34799;51.440;-2.534;2023-02-12T17:55:38;9.50;99.90
48988;DHT22;34799;51.440;-2.534;2023-02-12T17:58:06;9.60;99.90
48988;DHT22;34799;51.440;-2.534;2023-02-12T18:00:34;9.60;99.90
48988;DHT22;34799;51.440;-2.534;2023-02-12T18:03:01;9.80;99.90
48988;DHT22;34799;51.440;-2.534;2023-02-12T18:05:28;9.70;99.90
48988;DHT22;34799;51.440;-2.534;2023-02-12T18:07:55;9.70;99.90
48988;DHT22;34799;51.440;-2.534;2023-02-12T18:10:23;9.60;99.90
48988;DHT22;34799;51.440;-2.534;2023-02-12T18:12:51;9.70;99.90
48988;DHT22;34799;51.440;-2.534;2023-02-12T18:15:18;9.70;99.90
48988;DHT22;34799;51.440;-2.534;2023-02-12T18:17:47;9.70;99.90
48988;DHT22;34799;51.440;-2.534;2023-02-12T18:20:14;9.60;99.90
48988;DHT22;34799;51.440;-2.534;2023-02-12T18:22:41;9.60;99.90
48988;DHT22;34799;51.440;-2.534;2023-02-12T18:25:09;9.60;99.90
48988;DHT22;34799;51.440;-2.534;2023-02-12T18:27:36;9.60;99.90
48988;DHT22;34799;51.440;-2.534;2023-02-12T18:30:06;9.60;99.90
48988;DHT22;34799;51.440;-2.534;2023-02-12T18:32:35;9.60;99.90
48988;DHT22;34799;51.440;-2.534;2023-02-12T18:35:05;9.70;99.90
48988;DHT22;34799;51.440;-2.534;2023-02-12T18:37:33;9.60;99.90
48988;DHT22;34799;51.440;-2.534;2023-02-12T18:40:00;9.70;99.90
48988;DHT22;34799;51.440;-2.534;2023-02-12T18:42:30;9.60;99.90
48988;DHT22;34799;51.440;-2.534;2023-02-12T18:44:59;9.60;99.90
48988;DHT22;34799;51.440;-2.534;2023-02-12T18:47:26;9.60;99.90
48988;DHT22;34799;51.440;-2.534;2023-02-12T18:49:53;9.70;99.90
48988;DHT22;34799;51.440;-2.534;2023-02-12T18:52:20;9.60;99.90
48988;DHT22;34799;51.440;-2.534;2023-02-12T18:54:50;9.60;99.90
48988;DHT22;34799;51.440;-2.534;2023-02-12T18:57:19;9.50;99.90
48988;DHT22;34799;51.440;-2.534;2023-02-12T18:59:47;9.60;99.90
48988;DHT22;34799;51.440;-2.534;2023-02-12T19:02:14;9.60;99.90
48988;DHT22;34799;51.440;-2.534;2023-02-12T19:04:41;9.50;99.90
48988;DHT22;34799;51.440;-2.534;2023-02-12T19:07:08;9.60;99.90
48988;DHT22;34799;51.440;-2.534;2023-02-12T19:09:35;9.50;99.90
48988;DHT22;34799;51.440;-2.534;2023-02-12T19:12:03;11.80;99.90
48988;DHT22;34799;51.440;-2.534;2023-02-12T19:14:32;9.50;99.90